Time;durP1;ratioP1;P1;durP2;ratioP2;P2;SDS_P1;SDS_P2;PMS_P1;PMS_P2;Temp;Humidity;BMP_temperature;BMP_pressure;BME280_temperature;BME280_humidity;BME280_pressure;Samples;Min_cycle;Max_cycle;Signal;HPM_P1;HPM_P2
2022/12/11 00:00:48;;;;;;;82.75;28.48;;;;;;;0.76;100.00;100838.09;5088795;27;20051;-71
2022/12/11 00:03:15;;;;;;;94.40;31.60;;;;;;;0.76;100.00;100834.56;5091723;28;20043;-72
2022/12/11 00:05:43;;;;;;;88.75;31.38;;;;;;;0.72;100.00;100833.63;5089514;27;20133;-73
2022/12/11 00:08:11;;;;;;;70.57;25.67;;;;;;;0.72;100.00;100837.19;5090333;28;20071;-73
2022/12/11 00:10:37;;;;;;;79.25;28.10;;;;;;;0.72;100.00;100825.47;5080503;27;20483;-73
2022/12/11 00:13:04;;;;;;;59.55;22.08;;;;;;;0.72;100.00;100837.19;5088521;28;20499;-72
2022/12/11 00:15:31;;;;;;;86.15;27.38;;;;;;;0.76;100.00;100838.09;5092265;27;20043;-73
2022/12/11 00:17:57;;;;;;;48.80;16.02;;;;;;;0.69;100.00;100828.84;5095363;27;20051;-72
2022/12/11 00:20:24;;;;;;;25.98;10.05;;;;;;;0.67;100.00;100831.91;5089845;27;20052;-73
2022/12/11 00:22:50;;;;;;;78.90;28.58;;;;;;;0.74;100.00;100837.63;5090097;28;20066;-73
2022/12/11 00:25:17;;;;;;;82.13;26.27;;;;;;;0.73;100.00;100841.50;5087498;27;20897;-74
2022/12/11 00:27:45;;;;;;;80.30;26.65;;;;;;;0.77;100.00;100833.47;5083257;27;20867;-73
2022/12/11 00:30:13;;;;;;;74.35;26.88;;;;;;;0.78;100.00;100838.59;5083953;28;20051;-75
2022/12/11 00:32:42;;;;;;;39.38;14.32;;;;;;;0.73;100.00;100838.75;5090382;28;20047;-71
2022/12/11 00:35:10;;;;;;;71.82;27.08;;;;;;;0.79;100.00;100839.38;5083986;28;20158;-71
2022/12/11 00:37:36;;;;;;;82.28;28.00;;;;;;;0.80;100.00;100840.97;5090325;28;20955;-72
2022/12/11 00:40:03;;;;;;;77.32;27.55;;;;;;;0.79;100.00;100837.47;5088291;27;20052;-72
2022/12/11 00:42:30;;;;;;;73.35;24.00;;;;;;;0.77;100.00;100830.75;5087780;28;20043;-73
2022/12/11 00:44:56;;;;;;;68.95;22.10;;;;;;;0.78;100.00;100841.31;5083427;28;20669;-73
2022/12/11 00:47:23;;;;;;;16.85;6.88;;;;;;;0.72;100.00;100839.09;5088680;28;20055;-72
2022/12/11 00:49:49;;;;;;;61.67;21.08;;;;;;;0.74;100.00;100834.13;5087570;27;20491;-73
2022/12/11 00:52:16;;;;;;;85.25;31.17;;;;;;;0.82;100.00;100833.25;5089418;28;20137;-73
2022/12/11 00:54:43;;;;;;;83.25;27.70;;;;;;;0.77;100.00;100836.19;5089465;28;20050;-73
2022/12/11 00:57:10;;;;;;;84.03;30.58;;;;;;;0.81;100.00;100829.72;5089120;27;20055;-72
2022/12/11 00:59:37;;;;;;;64.03;23.95;;;;;;;0.73;100.00;100825.16;5082518;28;20048;-74
2022/12/11 01:02:03;;;;;;;84.25;26.65;;;;;;;0.78;100.00;100835.06;5088956;28;20055;-71
2022/12/11 01:04:30;;;;;;;75.40;25.92;;;;;;;0.78;100.00;100829.59;5089286;27;20044;-69
2022/12/11 01:06:57;;;;;;;65.68;22.83;;;;;;;0.75;100.00;100824.81;5086427;28;20055;-71
2022/12/11 01:12:09;;;;;;;56.38;19.33;;;;;;;0.78;100.00;100829.59;5089879;28;20062;-73
2022/12/11 01:14:35;;;;;;;81.32;30.40;;;;;;;0.75;100.00;100825.63;5088732;28;20051;-73
2022/12/11 01:17:02;;;;;;;57.42;17.95;;;;;;;0.72;100.00;100823.56;5082452;27;20787;-74
2022/12/11 01:19:28;;;;;;;48.30;15.15;;;;;;;0.72;100.00;100828.19;5079284;28;20591;-72
2022/12/11 01:21:55;;;;;;;88.47;28.73;;;;;;;0.78;100.00;100826.88;5089769;28;20058;-72
2022/12/11 01:24:21;;;;;;;26.88;8.15;;;;;;;0.77;100.00;100833.47;5086856;28;20050;-72
2022/12/11 01:26:48;;;;;;;90.07;31.15;;;;;;;0.80;100.00;100833.59;5084775;27;20050;-71
2022/12/11 01:29:14;;;;;;;69.15;19.95;;;;;;;0.78;100.00;100827.69;5084854;28;20967;-72
2022/12/11 01:31:41;;;;;;;27.92;8.30;;;;;;;0.73;100.00;100821.63;5089020;28;20051;-71
2022/12/11 01:34:07;;;;;;;21.95;8.20;;;;;;;0.81;100.00;100827.00;5082062;27;20047;-73
2022/12/11 01:36:34;;;;;;;78.43;26.80;;;;;;;0.85;100.00;100825.25;5091102;28;20727;-71
2022/12/11 01:39:00;;;;;;;91.80;28.15;;;;;;;0.85;100.00;100827.16;5093468;27;20056;-70
2022/12/11 01:41:27;;;;;;;102.93;29.20;;;;;;;0.87;100.00;100824.91;5088248;27;20048;-73
2022/12/11 01:43:56;;;;;;;87.95;27.90;;;;;;;0.89;100.00;100819.91;5083365;28;20048;-72
2022/12/11 01:46:23;;;;;;;73.93;25.77;;;;;;;0.89;100.00;100819.91;5087451;28;20066;-73
2022/12/11 01:48:50;;;;;;;79.63;29.10;;;;;;;0.88;100.00;100813.66;5084589;27;20490;-71
2022/12/11 01:51:17;;;;;;;27.73;8.82;;;;;;;0.84;100.00;100820.13;5084390;28;20043;-73
2022/12/11 01:53:50;;;;;;;75.85;25.15;;;;;;;0.88;100.00;100812.88;5084102;27;20043;-71
2022/12/11 01:56:17;;;;;;;86.75;29.10;;;;;;;0.88;100.00;100807.44;5089192;28;20051;-72
2022/12/11 01:58:51;;;;;;;90.88;24.90;;;;;;;0.90;100.00;100811.41;5080538;28;20052;-72
2022/12/11 02:01:27;;;;;;;67.40;21.17;;;;;;;0.87;100.00;100814.03;5082804;28;20771;-73
2022/12/11 02:03:55;;;;;;;82.35;25.88;;;;;;;0.88;100.00;100821.84;5087135;27;20058;-73
2022/12/11 02:06:30;;;;;;;90.10;27.88;;;;;;;0.90;100.00;100816.06;5085520;27;20228;-72
2022/12/11 02:08:56;;;;;;;97.53;29.38;;;;;;;0.95;100.00;100815.88;5083610;28;20051;-72
2022/12/11 02:11:33;;;;;;;86.70;27.40;;;;;;;0.94;100.00;100817.81;5084458;28;20059;-72
2022/12/11 02:14:39;;;;;;;76.57;25.05;;;;;;;0.92;100.00;100814.63;5088511;28;20047;-72
2022/12/11 02:17:27;;;;;;;91.90;30.10;;;;;;;0.93;100.00;100816.22;5084048;27;20059;-71
2022/12/11 02:20:21;;;;;;;88.60;27.08;;;;;;;0.98;100.00;100809.78;5087707;28;20040;-73
2022/12/11 02:22:48;;;;;;;40.78;14.75;;;;;;;0.99;100.00;100816.81;5083856;28;20047;-72
2022/12/11 02:25:31;;;;;;;76.13;26.30;;;;;;;0.96;100.00;100810.09;5078500;28;20052;-74
2022/12/11 02:28:13;;;;;;;72.43;22.90;;;;;;;0.99;100.00;100801.28;5086247;27;20039;-73
2022/12/11 02:30:41;;;;;;;72.72;24.00;;;;;;;0.97;100.00;100803.53;5077267;28;20082;-72
2022/12/11 02:33:12;;;;;;;91.78;27.45;;;;;;;0.98;100.00;100810.56;5083985;28;20043;-70
2022/12/11 02:35:43;;;;;;;76.28;25.48;;;;;;;0.99;100.00;100809.44;5088083;28;20073;-73
2022/12/11 02:38:12;;;;;;;84.40;26.02;;;;;;;1.04;100.00;100808.47;5087803;28;20059;-72
2022/12/11 02:40:41;;;;;;;81.28;26.52;;;;;;;1.03;100.00;100807.66;5080405;28;20055;-74
2022/12/11 02:43:12;;;;;;;30.63;9.98;;;;;;;0.99;100.00;100814.09;5080840;28;20551;-72
2022/12/11 02:45:41;;;;;;;75.32;23.15;;;;;;;1.06;100.00;100807.00;5086995;28;20044;-71
2022/12/11 02:48:10;;;;;;;36.55;12.40;;;;;;;1.00;100.00;100802.06;5092263;28;20124;-72
2022/12/11 02:50:44;;;;;;;89.55;28.20;;;;;;;1.08;100.00;100802.00;5088821;27;20044;-69
2022/12/11 02:53:14;;;;;;;84.32;25.45;;;;;;;1.10;100.00;100791.56;5089464;27;20059;-70
2022/12/11 02:55:42;;;;;;;73.43;25.13;;;;;;;1.04;100.00;100797.56;5096576;27;20397;-73
2022/12/11 02:58:16;;;;;;;43.13;13.18;;;;;;;1.02;100.00;100794.34;5111766;28;20047;-70
2022/12/11 03:00:44;;;;;;;31.85;11.18;;;;;;;1.01;100.00;100792.78;5111476;28;20061;-71
2022/12/11 03:03:12;;;;;;;67.47;22.15;;;;;;;1.05;100.00;100785.53;5112674;28;20051;-71
2022/12/11 03:05:40;;;;;;;25.98;10.57;;;;;;;1.01;100.00;100784.59;5108905;28;20063;-71
2022/12/11 03:08:07;;;;;;;55.10;19.08;;;;;;;1.01;100.00;100781.88;5111397;28;20051;-70
2022/12/11 03:10:34;;;;;;;13.50;6.03;;;;;;;0.98;100.00;100777.09;5111266;28;20065;-72
2022/12/11 03:13:01;;;;;;;77.32;23.67;;;;;;;1.04;100.00;100782.00;5110942;28;20066;-72
2022/12/11 03:15:47;;;;;;;75.88;25.05;;;;;;;1.08;100.00;100784.88;5111907;28;20039;-71
2022/12/11 03:18:19;;;;;;;;;;;;;;;1.11;100.00;100786.94;5112004;28;20043;-69
2022/12/11 03:21:04;;;;;;;79.57;26.13;;;;;;;1.14;100.00;100788.97;5109730;28;19919;-72
2022/12/11 03:23:35;;;;;;;65.45;21.33;;;;;;;1.09;100.00;100786.44;5104303;28;20054;-72
2022/12/11 03:26:09;;;;;;;43.28;13.40;;;;;;;1.07;100.00;100791.41;5112397;28;20039;-72
2022/12/11 03:28:46;;;;;;;74.82;25.75;;;;;;;1.10;100.00;100793.47;5111673;28;20051;-72
2022/12/11 03:31:25;;;;;;;72.78;24.50;;;;;;;1.11;100.00;100784.19;5110288;27;20052;-69
2022/12/11 03:33:56;;;;;;;78.75;26.00;;;;;;;1.14;100.00;100788.97;5111210;28;20058;-69
2022/12/11 03:36:29;;;;;;;17.17;5.70;;;;;;;1.05;100.00;100785.53;5112068;28;20479;-70
2022/12/11 03:39:00;;;;;;;64.15;23.13;;;;;;;1.13;100.00;100792.81;5110566;28;20088;-70
2022/12/11 03:41:30;;;;;;;67.93;24.00;;;;;;;1.13;100.00;100790.09;5111027;28;20512;-71
2022/12/11 03:43:57;;;;;;;68.97;21.63;;;;;;;1.13;100.00;100796.34;5111333;28;20062;-71
2022/12/11 03:46:30;;;;;;;73.22;25.92;;;;;;;1.14;100.00;100791.69;5110626;28;20043;-69
2022/12/11 03:49:01;;;;;;;68.28;25.73;;;;;;;1.19;100.00;100781.41;5111020;28;20048;-70
2022/12/11 03:51:31;;;;;;;62.53;21.80;;;;;;;1.18;100.00;100781.75;5102342;28;20047;-72
2022/12/11 03:53:59;;;;;;;64.78;23.48;;;;;;;1.21;100.00;100786.53;5110736;28;20058;-72
2022/12/11 03:56:29;;;;;;;63.80;23.85;;;;;;;1.21;100.00;100781.84;5110499;28;20070;-71
2022/12/11 03:58:55;;;;;;;66.65;23.83;;;;;;;1.23;100.00;100784.25;5111229;28;20137;-70
2022/12/11 04:01:22;;;;;;;59.15;22.05;;;;;;;1.21;100.00;100779.13;5109128;28;20060;-71
2022/12/11 04:03:48;;;;;;;21.02;6.90;;;;;;;1.16;100.00;100797.63;5110985;28;20048;-71
2022/12/11 04:06:15;;;;;;;27.85;10.32;;;;;;;1.12;100.00;100786.59;5108162;28;20075;-70
2022/12/11 04:08:41;;;;;;;58.97;20.08;;;;;;;1.16;100.00;100794.88;5109244;28;20044;-73
2022/12/11 04:16:39;;;;;;;44.28;16.13;;;;;;;1.07;100.00;100777.78;5104118;28;20040;-71
2022/12/11 04:24:35;;;;;;;28.55;9.35;;;;;;;1.09;100.00;100768.19;5111094;27;20047;-69
2022/12/11 04:27:01;;;;;;;40.97;14.50;;;;;;;1.10;100.00;100772.50;5110103;28;20036;-71
2022/12/11 04:29:28;;;;;;;58.60;20.50;;;;;;;1.15;100.00;100775.00;5108943;28;20074;-70
2022/12/11 04:31:54;;;;;;;38.72;14.10;;;;;;;1.13;100.00;100765.56;5110634;27;20043;-69
2022/12/11 04:34:21;;;;;;;61.45;17.90;;;;;;;1.12;100.00;100767.53;5110466;28;20047;-70
2022/12/11 04:36:47;;;;;;;51.72;19.15;;;;;;;1.17;100.00;100770.03;5110668;28;20052;-70
2022/12/11 04:39:14;;;;;;;54.40;17.92;;;;;;;1.14;100.00;100759.78;5110500;28;20051;-70
2022/12/11 04:41:41;;;;;;;62.47;21.80;;;;;;;1.20;100.00;100763.09;5108294;28;20488;-70
2022/12/11 04:44:07;;;;;;;60.67;21.88;;;;;;;1.21;100.00;100765.50;5108962;28;20048;-69
2022/12/11 04:46:34;;;;;;;73.80;23.90;;;;;;;1.21;100.00;100770.94;5110644;28;20071;-70
2022/12/11 04:49:01;;;;;;;72.32;25.30;;;;;;;1.26;100.00;100761.78;5109446;28;20051;-70
2022/12/11 04:51:28;;;;;;;65.10;22.08;;;;;;;1.24;100.00;100756.66;5108399;28;20047;-69
2022/12/11 04:53:54;;;;;;;67.53;23.77;;;;;;;1.24;100.00;100759.38;5108819;28;20055;-70
2022/12/11 04:56:21;;;;;;;59.97;17.95;;;;;;;1.24;100.00;100759.38;5108550;28;20052;-70
2022/12/11 04:58:48;;;;;;;68.03;23.40;;;;;;;1.25;100.00;100757.47;5109990;28;20052;-71
2022/12/11 05:01:17;;;;;;;82.43;25.52;;;;;;;1.21;100.00;100760.06;5109426;28;20640;-69
2022/12/11 05:03:45;;;;;;;58.85;20.05;;;;;;;1.22;100.00;100761.63;5109990;28;20059;-72
2022/12/11 05:06:12;;;;;;;66.25;22.17;;;;;;;1.24;100.00;100766.75;5108354;28;20044;-69
2022/12/11 05:08:40;;;;;;;17.45;8.38;;;;;;;1.16;100.00;100764.91;5107610;28;20059;-72
2022/12/11 05:11:09;;;;;;;27.90;9.75;;;;;;;1.18;100.00;100766.16;5108618;28;20062;-71
2022/12/11 05:13:36;;;;;;;67.00;24.35;;;;;;;1.25;100.00;100762.91;5109340;27;20047;-70
2022/12/11 05:16:04;;;;;;;74.38;26.10;;;;;;;1.25;100.00;100760.19;5109030;28;20606;-69
2022/12/11 05:18:31;;;;;;;67.97;23.58;;;;;;;1.25;100.00;100760.19;5110019;28;20052;-71
2022/12/11 05:21:00;;;;;;;66.80;20.77;;;;;;;1.24;100.00;100758.59;5109092;27;20055;-70
2022/12/11 05:23:27;;;;;;;64.72;22.50;;;;;;;1.22;100.00;100752.69;5110286;28;20059;-68
2022/12/11 05:25:57;;;;;;;63.63;18.77;;;;;;;1.24;100.00;100755.84;5109910;28;20499;-69
2022/12/11 05:28:27;;;;;;;61.47;21.75;;;;;;;1.27;100.00;100756.00;5108009;28;20051;-71
2022/12/11 05:30:58;;;;;;;64.70;21.30;;;;;;;1.29;100.00;100755.66;5108421;28;20076;-72
2022/12/11 05:33:25;;;;;;;26.25;8.85;;;;;;;1.30;100.00;100751.81;5088973;28;20467;-71
2022/12/11 05:35:52;;;;;;;60.70;22.33;;;;;;;1.33;100.00;100757.38;5089459;28;20052;-69
2022/12/11 05:38:18;;;;;;;46.30;15.10;;;;;;;1.29;100.00;100755.66;5101282;28;20458;-72
2022/12/11 05:41:14;;;;;;;53.10;19.27;;;;;;;1.34;100.00;100758.16;5107013;28;20051;-71
2022/12/11 05:43:41;;;;;;;16.67;7.72;;;;;;;1.26;100.00;100757.13;5108647;28;20077;-72
2022/12/11 05:46:09;;;;;;;55.05;19.73;;;;;;;1.28;100.00;100756.81;5111315;27;20050;-70
2022/12/11 05:48:37;;;;;;;77.55;23.65;;;;;;;1.31;100.00;100754.19;5108819;28;20070;-71
2022/12/11 05:51:05;;;;;;;21.80;8.82;;;;;;;1.29;100.00;100752.94;5107877;28;20507;-72
2022/12/11 05:53:32;;;;;;;59.72;21.02;;;;;;;1.30;100.00;100757.25;5108929;28;20059;-73
2022/12/11 05:56:07;;;;;;;68.40;23.60;;;;;;;1.33;100.00;100751.94;5105084;28;20047;-71
2022/12/11 05:58:34;;;;;;;57.47;21.23;;;;;;;1.30;100.00;100757.25;5101255;28;20059;-71
2022/12/11 06:01:01;;;;;;;48.90;17.25;;;;;;;1.27;100.00;100747.81;5107689;28;20043;-72
2022/12/11 06:03:28;;;;;;;17.38;6.50;;;;;;;1.29;100.00;100756.47;5107088;28;20055;-72
2022/12/11 06:05:54;;;;;;;70.55;23.95;;;;;;;1.34;100.00;100741.81;5106244;28;20047;-71
2022/12/11 06:08:21;;;;;;;63.22;21.00;;;;;;;1.32;100.00;100744.09;5108498;28;20051;-70
2022/12/11 06:10:49;;;;;;;74.07;22.98;;;;;;;1.35;100.00;100748.88;5107441;28;20063;-70
2022/12/11 06:13:15;;;;;;;70.20;23.23;;;;;;;1.35;100.00;100746.94;5107473;28;20557;-69
2022/12/11 06:15:42;;;;;;;70.20;22.80;;;;;;;1.34;100.00;100733.63;5107426;28;20504;-74
2022/12/11 06:18:09;;;;;;;31.88;10.63;;;;;;;1.33;100.00;100741.03;5107690;28;20047;-68
2022/12/11 06:20:36;;;;;;;70.90;24.20;;;;;;;1.33;100.00;100734.78;5106396;28;20239;-71
2022/12/11 06:23:02;;;;;;;70.55;23.15;;;;;;;1.34;100.00;100733.63;5108318;28;20157;-69
2022/12/11 06:25:29;;;;;;;65.28;22.15;;;;;;;1.35;100.00;100735.25;5107907;28;20051;-69
2022/12/11 06:27:56;;;;;;;60.85;20.60;;;;;;;1.34;100.00;100729.00;5108368;28;20047;-71
2022/12/11 06:30:22;;;;;;;64.82;21.85;;;;;;;1.35;100.00;100727.84;5106129;28;20052;-70
2022/12/11 06:33:04;;;;;;;69.03;22.48;;;;;;;1.39;100.00;100731.50;5107437;28;20050;-70
2022/12/11 06:35:30;;;;;;;69.15;23.63;;;;;;;1.40;100.00;100737.75;5106800;28;20392;-71
2022/12/11 06:37:58;;;;;;;56.90;19.17;;;;;;;1.35;100.00;100737.97;5105864;28;20054;-71
2022/12/11 06:40:24;;;;;;;73.05;23.58;;;;;;;1.39;100.00;100736.16;5104801;28;20048;-71
2022/12/11 06:42:51;;;;;;;57.30;20.55;;;;;;;1.37;100.00;100730.25;5105934;28;20050;-70
2022/12/11 06:45:17;;;;;;;71.63;25.20;;;;;;;1.39;100.00;100733.44;5108565;28;20079;-71
2022/12/11 06:47:43;;;;;;;67.95;22.70;;;;;;;1.39;100.00;100744.34;5107919;28;20513;-70
2022/12/11 06:50:10;;;;;;;73.93;23.25;;;;;;;1.40;100.00;100740.47;5105844;28;20426;-70
2022/12/11 06:52:36;;;;;;;68.10;24.58;;;;;;;1.41;100.00;100745.59;5108093;28;20048;-70
2022/12/11 06:55:03;;;;;;;68.15;21.95;;;;;;;1.40;100.00;100744.00;5107394;28;20161;-69
2022/12/11 06:57:30;;;;;;;63.88;22.65;;;;;;;1.39;100.00;100739.69;5107955;28;20523;-70
2022/12/11 06:59:56;;;;;;;57.95;21.15;;;;;;;1.37;100.00;100739.22;5105359;28;20494;-71
2022/12/11 07:02:23;;;;;;;69.55;20.77;;;;;;;1.39;100.00;100741.63;5103835;28;20058;-69
2022/12/11 07:04:49;;;;;;;71.28;25.23;;;;;;;1.41;100.00;100747.53;5108138;28;20138;-69
2022/12/11 07:07:20;;;;;;;65.97;22.83;;;;;;;1.40;100.00;100749.47;5107741;28;20048;-71
2022/12/11 07:09:47;;;;;;;74.90;22.60;;;;;;;1.42;100.00;100752.63;5102816;28;20496;-70
2022/12/11 07:12:13;;;;;;;83.32;27.63;;;;;;;1.44;100.00;100750.38;5116039;28;20548;-70
2022/12/11 07:14:40;;;;;;;74.00;24.00;;;;;;;1.44;100.00;100746.84;5108385;28;20073;-70
2022/12/11 07:17:06;;;;;;;78.93;25.25;;;;;;;1.45;100.00;100745.75;5106029;28;20043;-71
2022/12/11 07:19:33;;;;;;;74.35;23.20;;;;;;;1.44;100.00;100752.31;5106867;28;20074;-72
2022/12/11 07:21:59;;;;;;;83.60;27.10;;;;;;;1.43;100.00;100751.53;5106921;28;20056;-72
2022/12/11 07:24:26;;;;;;;76.70;25.73;;;;;;;1.48;100.00;100750.53;5107255;28;20067;-72
2022/12/11 07:26:52;;;;;;;75.57;27.25;;;;;;;1.47;100.00;100748.91;5106885;28;20046;-71
2022/12/11 07:29:19;;;;;;;78.75;26.02;;;;;;;1.47;100.00;100740.72;5105142;28;20062;-70
2022/12/11 07:31:45;;;;;;;75.82;24.13;;;;;;;1.49;100.00;100741.22;5107953;27;20054;-70
2022/12/11 07:34:13;;;;;;;73.97;24.95;;;;;;;1.48;100.00;100745.06;5109064;27;20499;-70
2022/12/11 07:36:39;;;;;;;70.80;23.20;;;;;;;1.49;100.00;100747.44;5110283;28;20045;-70
2022/12/11 07:39:07;;;;;;;74.32;25.95;;;;;;;1.50;100.00;100751.78;5108679;28;20449;-69
2022/12/11 07:41:34;;;;;;;70.80;23.30;;;;;;;1.49;100.00;100758.34;5110245;28;20507;-70
2022/12/11 07:44:02;;;;;;;76.35;26.42;;;;;;;1.53;100.00;100745.66;5110169;28;20054;-70
2022/12/11 07:46:31;;;;;;;76.47;27.45;;;;;;;1.53;100.00;100755.75;5119043;27;20043;-72
2022/12/11 07:48:59;;;;;;;71.30;23.45;;;;;;;1.49;100.00;100754.84;5109434;28;21266;-71
2022/12/11 07:51:29;;;;;;;67.10;25.25;;;;;;;1.50;100.00;100759.16;5109087;28;20051;-70
2022/12/11 07:53:58;;;;;;;59.97;20.70;;;;;;;1.48;100.00;100755.97;5109925;28;20740;-70
2022/12/11 07:56:26;;;;;;;17.08;7.75;;;;;;;1.47;100.00;100752.44;5110247;28;20048;-69
2022/12/11 07:58:53;;;;;;;77.07;25.35;;;;;;;1.54;100.00;100754.63;5111647;27;20059;-70
2022/12/11 08:01:25;;;;;;;69.88;25.15;;;;;;;1.54;100.00;100752.69;5109297;28;20522;-71
2022/12/11 08:03:53;;;;;;;76.05;26.05;;;;;;;1.49;100.00;100755.63;5109153;28;20129;-73
2022/12/11 08:06:28;;;;;;;61.63;23.67;;;;;;;1.50;100.00;100750.97;5109094;28;20044;-73
2022/12/11 08:08:56;;;;;;;64.18;22.08;;;;;;;1.50;100.00;100753.69;5109454;28;20058;-73
2022/12/11 08:11:23;;;;;;;68.43;23.42;;;;;;;1.57;100.00;100757.47;5109596;28;20059;-72
2022/12/11 08:13:50;;;;;;;71.78;23.42;;;;;;;1.60;100.00;100756.81;5109849;28;20112;-72
2022/12/11 08:16:17;;;;;;;37.35;11.35;;;;;;;1.55;100.00;100754.28;5110407;28;20152;-72
2022/12/11 08:18:45;;;;;;;58.15;17.95;;;;;;;1.52;100.00;100754.94;5110633;27;20461;-73
2022/12/11 08:21:17;;;;;;;72.50;25.88;;;;;;;1.56;100.00;100755.09;5110199;28;20047;-70
2022/12/11 08:23:44;;;;;;;77.85;26.38;;;;;;;1.58;100.00;100764.53;5108848;28;20051;-73
2022/12/11 08:26:20;;;;;;;59.42;20.50;;;;;;;1.52;100.00;100754.94;5107712;28;20058;-74
2022/12/11 08:28:47;;;;;;;47.05;18.20;;;;;;;1.53;100.00;100767.47;5107481;28;20051;-72
2022/12/11 08:31:15;;;;;;;64.63;23.42;;;;;;;1.56;100.00;100755.91;5108453;27;20536;-71
2022/12/11 08:33:42;;;;;;;40.85;13.75;;;;;;;1.56;100.00;100766.00;5120340;27;20832;-71
2022/12/11 08:36:11;;;;;;;55.95;21.05;;;;;;;1.57;100.00;100757.47;5117711;27;20055;-71
2022/12/11 08:38:38;;;;;;;69.70;23.75;;;;;;;1.57;100.00;100756.66;5109346;28;20048;-70
2022/12/11 08:41:13;;;;;;;57.58;22.67;;;;;;;1.56;100.00;100755.09;5107730;27;20039;-71
2022/12/11 08:43:40;;;;;;;51.45;18.33;;;;;;;1.52;100.00;100757.69;5107240;28;20504;-72
2022/12/11 08:46:07;;;;;;;32.88;13.13;;;;;;;1.53;100.00;100755.75;5110519;28;20143;-71
2022/12/11 08:48:36;;;;;;;65.47;22.88;;;;;;;1.53;100.00;100756.56;5107832;28;20047;-71
2022/12/11 08:51:05;;;;;;;25.50;10.63;;;;;;;1.52;100.00;100756.91;5108811;28;20877;-72
2022/12/11 08:53:32;;;;;;;52.53;17.42;;;;;;;1.51;100.00;100758.00;5109382;28;20043;-71
2022/12/11 08:56:10;;;;;;;19.25;8.25;;;;;;;1.51;100.00;100752.56;5106598;28;20059;-72
2022/12/11 08:58:37;;;;;;;8.30;4.32;;;;;;;1.51;100.00;100749.81;5103385;28;20047;-72
2022/12/11 09:01:09;;;;;;;22.85;10.18;;;;;;;1.46;100.00;100750.84;5108702;28;20036;-70
2022/12/11 09:03:37;;;;;;;72.75;31.15;;;;;;;1.51;100.00;100747.91;5099301;28;20051;-71
2022/12/11 09:06:20;;;;;;;68.38;29.60;;;;;;;1.49;100.00;100747.44;5105123;28;20051;-71
2022/12/11 09:08:48;;;;;;;64.03;24.60;;;;;;;1.55;100.00;100748.03;5107585;28;20053;-72
2022/12/11 09:11:21;;;;;;;53.20;20.45;;;;;;;1.52;100.00;100754.94;5105889;28;20074;-73
2022/12/11 09:13:48;;;;;;;70.47;23.98;;;;;;;1.52;100.00;100754.94;5107483;28;20187;-71
2022/12/11 09:16:17;;;;;;;71.60;29.27;;;;;;;1.53;100.00;100750.31;5108171;28;20048;-73
2022/12/11 09:18:46;;;;;;;47.92;18.02;;;;;;;1.52;100.00;100756.91;5107916;28;20108;-70
2022/12/11 09:21:15;;;;;;;8.77;4.10;;;;;;;1.52;100.00;100759.63;5108479;28;20058;-70
2022/12/11 09:23:43;;;;;;;17.33;5.72;;;;;;;1.42;100.00;100755.38;5107867;28;20054;-70
2022/12/11 09:26:12;;;;;;;51.78;21.63;;;;;;;1.47;100.00;100748.91;5108083;28;20077;-71
2022/12/11 09:28:39;;;;;;;40.25;14.65;;;;;;;1.51;100.00;100758.00;5109097;28;20048;-70
2022/12/11 09:31:18;;;;;;;62.97;23.15;;;;;;;1.49;100.00;100758.34;5107660;27;20705;-72
2022/12/11 09:33:45;;;;;;;65.68;23.20;;;;;;;1.52;100.00;100754.16;5108513;28;20062;-72
2022/12/11 09:36:12;;;;;;;65.35;25.88;;;;;;;1.52;100.00;100759.63;5109546;28;20524;-70
2022/12/11 09:38:39;;;;;;;43.22;15.70;;;;;;;1.49;100.00;100760.28;5108680;28;20055;-70
2022/12/11 09:41:21;;;;;;;45.85;20.17;;;;;;;1.51;100.00;100763.47;5106460;28;20492;-71
2022/12/11 09:43:53;;;;;;;45.85;14.13;;;;;;;1.53;100.00;100753.03;5108623;28;20543;-71
2022/12/11 09:46:20;;;;;;;41.40;15.30;;;;;;;1.51;100.00;100752.56;5108373;28;20553;-73
2022/12/11 09:48:52;;;;;;;62.92;24.95;;;;;;;1.53;100.00;100753.03;5108267;27;20047;-70
2022/12/11 09:51:23;;;;;;;7.53;4.25;;;;;;;1.47;100.00;100746.19;5106800;28;20048;-71
2022/12/11 09:53:50;;;;;;;67.82;24.60;;;;;;;1.54;100.00;100752.69;5108723;28;20055;-72
2022/12/11 09:56:25;;;;;;;70.47;25.88;;;;;;;1.54;100.00;100735.53;5108465;27;20701;-71
2022/12/11 09:58:51;;;;;;;66.65;24.63;;;;;;;1.60;100.00;100747.81;5108326;27;20050;-70
2022/12/11 10:01:33;;;;;;;59.38;22.98;;;;;;;1.59;100.00;100749.75;5106304;28;20525;-72
2022/12/11 10:04:24;;;;;;;70.97;25.67;;;;;;;1.62;100.00;100759.19;5108355;28;20051;-72
2022/12/11 10:07:08;;;;;;;46.10;18.25;;;;;;;1.58;100.00;100750.06;5105774;28;20043;-72
2022/12/11 10:10:01;;;;;;;64.65;25.00;;;;;;;1.66;100.00;100749.22;5106812;28;20047;-71
2022/12/11 10:12:31;;;;;;;48.78;19.35;;;;;;;1.60;100.00;100753.28;5108448;28;20058;-72
2022/12/11 10:15:16;;;;;;;51.47;20.38;;;;;;;1.59;100.00;100755.19;5103234;27;20051;-70
2022/12/11 10:17:43;;;;;;;55.70;21.50;;;;;;;1.59;100.00;100744.28;5115615;27;20054;-72
2022/12/11 10:20:19;;;;;;;50.90;19.48;;;;;;;1.62;100.00;100751.03;5115448;27;20744;-70
2022/12/11 10:22:47;;;;;;;24.67;11.07;;;;;;;1.53;100.00;100739.38;5108242;28;20055;-71
2022/12/11 10:25:35;;;;;;;53.85;20.23;;;;;;;1.58;100.00;100737.25;5107839;28;20523;-70
2022/12/11 10:28:15;;;;;;;59.03;21.67;;;;;;;1.58;100.00;100736.44;5108119;28;20127;-72
2022/12/11 10:30:53;;;;;;;68.03;26.52;;;;;;;1.63;100.00;100734.31;5108100;28;20059;-72
2022/12/11 10:33:25;;;;;;;66.75;26.25;;;;;;;1.69;100.00;100732.16;5108306;28;20058;-69
2022/12/11 10:35:54;;;;;;;76.72;28.50;;;;;;;1.71;100.00;100725.25;5108833;27;20050;-71
2022/12/11 10:38:33;;;;;;;70.97;27.52;;;;;;;1.75;100.00;100722.63;5105182;28;20042;-72
2022/12/11 10:41:03;;;;;;;65.25;25.85;;;;;;;1.75;100.00;100719.88;5111027;27;20054;-71
2022/12/11 10:43:41;;;;;;;66.22;25.40;;;;;;;1.74;100.00;100719.09;5105931;28;20423;-72
2022/12/11 10:46:19;;;;;;;55.78;22.60;;;;;;;1.68;100.00;100725.09;5107885;28;20052;-71
2022/12/11 10:48:52;;;;;;;58.58;23.90;;;;;;;1.71;100.00;100724.44;5106641;28;20056;-72
2022/12/11 10:51:39;;;;;;;64.53;24.92;;;;;;;1.70;100.00;100714.66;5107879;28;20059;-72
2022/12/11 10:54:16;;;;;;;39.22;16.70;;;;;;;1.65;100.00;100721.13;5107455;27;20051;-71
2022/12/11 10:56:47;;;;;;;55.35;20.58;;;;;;;1.66;100.00;100719.22;5106522;28;20051;-71
2022/12/11 10:59:29;;;;;;;40.45;15.25;;;;;;;1.66;100.00;100716.47;5105798;28;20054;-70
2022/12/11 11:01:56;;;;;;;62.38;24.70;;;;;;;1.63;100.00;100714.44;5100357;28;20189;-69
2022/12/11 11:04:30;;;;;;;65.93;25.88;;;;;;;1.70;100.00;100711.94;5087668;28;20047;-71
2022/12/11 11:07:25;;;;;;;61.13;24.80;;;;;;;1.70;100.00;100718.19;5107157;28;20580;-72
2022/12/11 11:10:09;;;;;;;63.53;25.20;;;;;;;1.78;100.00;100709.13;5101442;28;20514;-73
2022/12/11 11:12:45;;;;;;;58.90;22.23;;;;;;;1.78;100.00;100713.75;5103301;28;20039;-74
2022/12/11 11:15:15;;;;;;;61.30;23.98;;;;;;;1.74;100.00;100712.84;5110542;28;20075;-72
2022/12/11 11:17:53;;;;;;;45.47;18.38;;;;;;;1.68;100.00;100712.28;5111378;28;20054;-68
2022/12/11 11:20:28;;;;;;;75.78;29.35;;;;;;;1.72;100.00;100710.47;5108511;28;20083;-72
2022/12/11 11:22:58;;;;;;;63.42;23.08;;;;;;;1.70;100.00;100712.75;5108677;28;20499;-71
2022/12/11 11:25:27;;;;;;;64.57;26.77;;;;;;;1.72;100.00;100706.94;5110662;28;20415;-72
2022/12/11 11:28:04;;;;;;;65.70;26.55;;;;;;;1.73;100.00;100705.81;5110428;28;20044;-72
2022/12/11 11:30:37;;;;;;;70.95;27.48;;;;;;;1.78;100.00;100705.56;5110950;28;20054;-72
2022/12/11 11:33:12;;;;;;;67.13;27.13;;;;;;;1.77;100.00;100702.06;5108841;28;20587;-70
2022/12/11 11:35:50;;;;;;;68.35;27.10;;;;;;;1.81;100.00;100697.53;5111374;28;20051;-72